createdAt,value
2023-01-09T00:00:30.879Z,96.20
2023-01-09T00:01:30.935Z,96.00
2023-01-09T00:02:30.956Z,96.41
2023-01-09T00:03:30.893Z,96.51
2023-01-09T00:04:30.818Z,96.31
2023-01-09T00:05:30.842Z,96.47
2023-01-09T00:06:30.839Z,96.16
2023-01-09T00:07:30.799Z,95.75
2023-01-09T00:08:30.797Z,95.44
2023-01-09T00:09:30.784Z,95.34
2023-01-09T00:10:30.769Z,95.54
2023-01-09T00:11:30.767Z,95.18
2023-01-09T00:12:30.793Z,95.65
2023-01-09T00:13:30.731Z,95.49
2023-01-09T00:14:30.712Z,95.69
2023-01-09T00:15:30.713Z,95.79
2023-01-09T00:16:30.777Z,96.57
2023-01-09T00:17:30.751Z,96.31
2023-01-09T00:18:30.711Z,96.31
2023-01-09T00:19:30.671Z,96.37
2023-01-09T00:20:30.657Z,96.31
2023-01-09T00:21:30.645Z,96.41
2023-01-09T00:22:30.686Z,96.31
2023-01-09T00:23:30.665Z,96.82
2023-01-09T00:24:30.633Z,96.72
2023-01-09T00:25:30.620Z,96.51
2023-01-09T00:26:30.672Z,96.82
2023-01-09T00:27:30.612Z,96.82
2023-01-09T00:28:30.604Z,97.03
2023-01-09T00:29:30.558Z,96.92
2023-01-09T00:30:30.590Z,96.92
2023-01-09T00:31:30.558Z,96.72
2023-01-09T00:32:30.525Z,96.72
2023-01-09T00:33:30.538Z,96.82
2023-01-09T00:34:30.532Z,96.92
2023-01-09T00:35:30.516Z,96.51
2023-01-09T00:36:30.494Z,96.62
2023-01-09T00:37:30.473Z,96.41
2023-01-09T00:38:30.549Z,96.62
2023-01-09T00:39:30.465Z,97.13
2023-01-09T00:40:30.444Z,97.44
2023-01-09T00:41:30.482Z,97.33
2023-01-09T00:42:30.449Z,97.23
2023-01-09T00:43:30.419Z,96.82
2023-01-09T00:44:30.400Z,96.72
2023-01-09T00:45:30.395Z,96.92
2023-01-09T00:46:30.398Z,96.82
2023-01-09T00:47:30.395Z,97.13
2023-01-09T00:48:30.372Z,97.03
2023-01-09T00:49:30.428Z,96.72
2023-01-09T00:50:30.350Z,96.41
2023-01-09T00:51:30.397Z,96.20
2023-01-09T00:52:30.382Z,96.72
2023-01-09T00:53:30.329Z,97.44
2023-01-09T00:54:30.333Z,96.92
2023-01-09T00:55:30.301Z,97.13
2023-01-09T00:56:30.528Z,97.13
2023-01-09T00:57:30.280Z,96.92
2023-01-09T00:58:30.259Z,97.03
2023-01-09T00:59:30.297Z,96.41
2023-01-09T01:00:30.253Z,97.23
2023-01-09T01:01:30.371Z,96.82
2023-01-09T01:02:30.373Z,96.51
2023-01-09T01:03:30.235Z,97.13
2023-01-09T01:04:30.232Z,97.44
2023-01-09T01:05:30.209Z,97.33
2023-01-09T01:06:30.203Z,97.23
2023-01-09T01:07:30.180Z,97.44
2023-01-09T01:08:30.173Z,96.92
2023-01-09T01:09:30.157Z,96.92
2023-01-09T01:10:30.136Z,97.85
2023-01-09T01:11:30.128Z,98.16
2023-01-09T01:12:30.118Z,98.57
2023-01-09T01:13:30.131Z,98.82
2023-01-09T01:14:30.097Z,99.12
2023-01-09T01:15:30.085Z,99.63
2023-01-09T01:16:30.168Z,99.99
2023-01-09T01:17:30.111Z,99.99
2023-01-09T01:18:30.096Z,99.99
2023-01-09T01:19:30.075Z,99.99
2023-01-09T01:20:30.056Z,99.99
2023-01-09T01:21:30.041Z,99.79
2023-01-09T01:22:30.034Z,99.99
2023-01-09T01:23:30.039Z,99.99
2023-01-09T01:24:30.029Z,99.89
2023-01-09T01:25:30.029Z,98.35
2023-01-09T01:26:29.981Z,98.08
2023-01-09T01:27:30.041Z,98.39
2023-01-09T01:28:29.993Z,99.93
2023-01-09T01:29:29.979Z,99.42
2023-01-09T01:30:29.939Z,99.11
2023-01-09T01:31:29.945Z,99.93
2023-01-09T01:32:29.915Z,99.58
2023-01-09T01:33:29.923Z,98.96
2023-01-09T01:34:29.931Z,98.96
2023-01-09T01:35:29.886Z,99.07
2023-01-09T01:36:29.879Z,99.99
2023-01-09T01:37:30.719Z,98.45
2023-01-09T01:38:29.883Z,97.63
2023-01-09T01:39:29.896Z,97.78
2023-01-09T01:40:29.853Z,97.88
2023-01-09T01:41:30.053Z,97.47
2023-01-09T01:42:29.808Z,97.67
2023-01-09T01:43:29.817Z,97.88
2023-01-09T01:44:29.827Z,97.16
2023-01-09T01:45:29.837Z,97.88
2023-01-09T01:46:29.796Z,97.47
2023-01-09T01:47:29.757Z,98.08
2023-01-09T01:48:29.747Z,99.01
2023-01-09T01:49:29.745Z,97.57
2023-01-09T01:50:29.766Z,96.75
2023-01-09T01:51:29.729Z,97.57
2023-01-09T01:52:29.716Z,97.37
2023-01-09T01:53:29.699Z,97.27
2023-01-09T01:54:29.685Z,98.39
2023-01-09T01:55:29.720Z,98.91
2023-01-09T01:56:29.701Z,98.70
2023-01-09T01:57:29.660Z,98.19
2023-01-09T01:58:29.691Z,98.55
2023-01-09T01:59:29.658Z,97.63
2023-01-09T02:00:29.692Z,98.25
2023-01-09T02:01:29.747Z,98.25
2023-01-09T02:02:29.726Z,98.35
2023-01-09T02:03:29.637Z,96.91
2023-01-09T02:04:29.619Z,97.32
2023-01-09T02:05:29.612Z,97.83
2023-01-09T02:06:29.579Z,96.70
2023-01-09T02:07:29.565Z,96.40
2023-01-09T02:08:29.572Z,95.37
2023-01-09T02:09:29.571Z,95.68
2023-01-09T02:10:29.556Z,97.12
2023-01-09T02:11:29.546Z,97.12
2023-01-09T02:12:29.517Z,95.89
2023-01-09T02:13:29.506Z,95.57
2023-01-09T02:14:29.515Z,95.47
2023-01-09T02:15:29.539Z,96.09
2023-01-09T02:16:29.499Z,95.98
2023-01-09T02:17:29.460Z,96.50
2023-01-09T02:18:29.456Z,95.98
2023-01-09T02:19:29.468Z,95.47
2023-01-09T02:20:29.450Z,95.52
2023-01-09T02:21:29.424Z,95.31
2023-01-09T02:22:29.437Z,95.10
2023-01-09T02:23:29.421Z,94.70
2023-01-09T02:24:29.418Z,94.90
2023-01-09T02:25:29.402Z,95.31
2023-01-09T02:26:29.400Z,95.62
2023-01-09T02:27:29.377Z,95.52
2023-01-09T02:28:29.360Z,95.10
2023-01-09T02:29:29.340Z,95.10
2023-01-09T02:30:29.331Z,94.59
2023-01-09T02:31:29.370Z,94.39
2023-01-09T02:32:29.356Z,95.21
2023-01-09T02:33:29.301Z,94.80
2023-01-09T02:34:29.298Z,94.39
2023-01-09T02:35:29.321Z,95.72
2023-01-09T02:36:29.276Z,95.01
2023-01-09T02:37:29.286Z,93.46
2023-01-09T02:38:29.253Z,93.10
2023-01-09T02:39:29.256Z,93.05
2023-01-09T02:40:29.321Z,93.10
2023-01-09T02:41:29.222Z,93.61
2023-01-09T02:42:29.264Z,93.82
2023-01-09T02:43:29.229Z,94.12
2023-01-09T02:44:29.195Z,93.71
2023-01-09T02:45:29.242Z,93.61
2023-01-09T02:46:29.193Z,93.71
2023-01-09T02:47:29.197Z,94.02
2023-01-09T02:48:29.158Z,93.51
2023-01-09T02:49:29.161Z,92.69
2023-01-09T02:50:29.139Z,93.10
2023-01-09T02:51:29.127Z,94.33
2023-01-09T02:52:29.158Z,95.36
2023-01-09T02:53:29.134Z,94.80
2023-01-09T02:54:29.149Z,93.98
2023-01-09T02:55:29.111Z,92.85
2023-01-09T02:56:29.073Z,92.74
2023-01-09T02:57:29.072Z,93.51
2023-01-09T02:58:29.062Z,93.51
2023-01-09T02:59:29.049Z,92.58
2023-01-09T03:00:29.033Z,93.71
2023-01-09T03:01:29.195Z,92.17
2023-01-09T03:02:29.017Z,91.66
2023-01-09T03:03:29.009Z,91.45
2023-01-09T03:04:29.043Z,92.07
2023-01-09T03:05:28.997Z,93.82
2023-01-09T03:06:28.993Z,93.82
2023-01-09T03:07:28.969Z,93.82
2023-01-09T03:08:28.967Z,94.12
2023-01-09T03:09:28.952Z,91.86
2023-01-09T03:10:28.940Z,90.63
2023-01-09T03:11:28.924Z,91.25
2023-01-09T03:12:28.926Z,92.89
2023-01-09T03:13:28.916Z,92.79
2023-01-09T03:14:28.888Z,91.14
2023-01-09T03:15:28.894Z,93.30
2023-01-09T03:16:28.990Z,92.89
2023-01-09T03:17:28.918Z,92.95
2023-01-09T03:18:28.849Z,90.01
2023-01-09T03:19:28.860Z,90.73
2023-01-09T03:20:28.857Z,91.14
2023-01-09T03:21:28.838Z,90.94
2023-01-09T03:22:28.862Z,91.66
2023-01-09T03:23:28.799Z,91.04
2023-01-09T03:24:28.794Z,91.14
2023-01-09T03:25:28.835Z,89.95
2023-01-09T03:26:28.770Z,91.70
2023-01-09T03:27:28.798Z,91.60
2023-01-09T03:28:28.753Z,92.52
2023-01-09T03:29:29.644Z,94.07
2023-01-09T03:30:28.722Z,95.40
2023-01-09T03:31:28.750Z,95.05
2023-01-09T03:32:28.741Z,94.74
2023-01-09T03:33:28.715Z,94.43
2023-01-09T03:34:28.688Z,92.95
2023-01-09T03:35:28.682Z,92.85
2023-01-09T03:36:28.695Z,90.89
2023-01-09T03:37:28.685Z,89.87
2023-01-09T03:38:28.670Z,89.50
2023-01-09T03:39:28.663Z,89.85
2023-01-09T03:40:28.658Z,90.88
2023-01-09T03:41:28.616Z,91.70
2023-01-09T03:42:28.622Z,92.83
2023-01-09T03:43:28.616Z,93.44
2023-01-09T03:44:28.604Z,92.63
2023-01-09T03:45:28.639Z,93.44
2023-01-09T03:46:28.565Z,93.61
2023-01-09T03:47:28.547Z,93.30
2023-01-09T03:48:28.546Z,91.97
2023-01-09T03:49:28.539Z,91.66
2023-01-09T03:50:28.549Z,92.07
2023-01-09T03:51:28.543Z,92.27
2023-01-09T03:52:28.516Z,93.10
2023-01-09T03:53:28.511Z,92.27
2023-01-09T03:54:28.523Z,92.07
2023-01-09T03:55:28.481Z,91.97
2023-01-09T03:56:28.493Z,91.14
2023-01-09T03:57:28.464Z,92.89
2023-01-09T03:58:28.453Z,90.63
2023-01-09T03:59:28.472Z,90.12
2023-01-09T04:00:28.422Z,89.85
2023-01-09T04:01:28.539Z,90.47
2023-01-09T04:02:28.450Z,90.72
2023-01-09T04:03:28.421Z,91.85
2023-01-09T04:04:28.383Z,93.18
2023-01-09T04:05:28.397Z,92.97
2023-01-09T04:06:28.404Z,93.44
2023-01-09T04:07:28.379Z,94.17
2023-01-09T04:08:28.364Z,94.07
2023-01-09T04:09:28.373Z,93.61
2023-01-09T04:10:28.343Z,92.89
2023-01-09T04:11:28.364Z,91.66
2023-01-09T04:12:28.312Z,91.04
2023-01-09T04:13:28.331Z,91.14
2023-01-09T04:14:28.288Z,90.47
2023-01-09T04:15:28.341Z,91.39
2023-01-09T04:16:28.339Z,93.55
2023-01-09T04:17:28.329Z,91.91
2023-01-09T04:18:28.254Z,91.29
2023-01-09T04:19:28.243Z,92.32
2023-01-09T04:20:28.252Z,90.98
2023-01-09T04:21:28.252Z,91.02
2023-01-09T04:22:28.215Z,92.77
2023-01-09T04:23:28.225Z,93.55
2023-01-09T04:24:28.226Z,92.01
2023-01-09T04:25:28.230Z,91.80
2023-01-09T04:26:28.190Z,91.08
2023-01-09T04:27:28.209Z,91.33
2023-01-09T04:28:28.170Z,93.24
2023-01-09T04:29:28.153Z,92.32
2023-01-09T04:30:28.136Z,93.86
2023-01-09T04:31:28.170Z,93.44
2023-01-09T04:32:28.147Z,93.86
2023-01-09T04:33:28.154Z,93.65
2023-01-09T04:34:28.129Z,91.70
2023-01-09T04:35:28.091Z,92.11
2023-01-09T04:36:28.150Z,91.39
2023-01-09T04:37:28.079Z,92.17
2023-01-09T04:38:28.127Z,93.10
2023-01-09T04:39:28.084Z,92.99
2023-01-09T04:40:28.028Z,91.66
2023-01-09T04:41:28.046Z,92.69
2023-01-09T04:42:28.011Z,91.14
2023-01-09T04:43:28.041Z,93.30
2023-01-09T04:44:28.014Z,93.40
2023-01-09T04:45:28.027Z,91.76
2023-01-09T04:46:27.973Z,91.14
2023-01-09T04:47:27.981Z,92.64
2023-01-09T04:48:27.981Z,92.85
2023-01-09T04:49:27.892Z,90.89
2023-01-09T04:50:27.948Z,90.59
2023-01-09T04:51:27.955Z,90.80
2023-01-09T04:52:27.931Z,90.59
2023-01-09T04:53:27.906Z,90.69
2023-01-09T04:54:27.919Z,91.31
2023-01-09T04:55:27.892Z,90.38
2023-01-09T04:56:27.895Z,89.97
2023-01-09T04:57:27.875Z,89.15
2023-01-09T04:58:27.865Z,89.15
2023-01-09T04:59:27.849Z,87.82
2023-01-09T05:00:27.833Z,88.89
2023-01-09T05:01:27.993Z,91.14
2023-01-09T05:02:27.848Z,92.58
2023-01-09T05:04:39.865Z,89.40
2023-01-09T05:05:40.707Z,89.81
2023-01-09T05:06:40.681Z,88.89
2023-01-09T05:07:40.689Z,89.03
2023-01-09T05:08:40.661Z,90.57
2023-01-09T05:09:40.641Z,90.16
2023-01-09T05:10:40.676Z,90.88
2023-01-09T05:11:40.652Z,92.21
2023-01-09T05:12:40.620Z,92.01
2023-01-09T05:13:40.613Z,91.76
2023-01-09T05:14:40.623Z,92.38
2023-01-09T05:15:40.585Z,93.10
2023-01-09T05:16:40.662Z,90.63
2023-01-09T05:17:40.587Z,91.93
2023-01-09T05:18:40.562Z,90.59
2023-01-09T05:19:40.806Z,92.13
2023-01-09T05:20:40.568Z,92.85
2023-01-09T05:21:40.539Z,91.61
2023-01-09T05:22:40.515Z,91.72
2023-01-09T05:23:40.523Z,89.97
2023-01-09T05:24:40.512Z,89.04
2023-01-09T05:25:40.507Z,88.74
2023-01-09T05:26:40.524Z,89.81
2023-01-09T05:27:40.480Z,89.81
2023-01-09T05:28:40.461Z,89.70
2023-01-09T05:29:40.468Z,90.83
2023-01-09T05:30:40.538Z,91.04
2023-01-09T05:31:40.461Z,90.73
2023-01-09T05:32:40.420Z,87.96
2023-01-09T05:33:40.391Z,86.97
2023-01-09T05:34:40.425Z,86.97
2023-01-09T05:35:40.409Z,86.97
2023-01-09T05:36:40.504Z,88.41
2023-01-09T05:37:40.384Z,88.20
2023-01-09T05:38:40.381Z,87.69
2023-01-09T05:39:40.391Z,86.87
2023-01-09T05:40:40.820Z,88.31
2023-01-09T05:41:40.344Z,85.02
2023-01-09T05:42:40.357Z,86.70
2023-01-09T05:43:40.302Z,88.51
2023-01-09T05:44:40.302Z,83.83
2023-01-09T05:45:40.336Z,83.62
2023-01-09T05:46:40.288Z,84.03
2023-01-09T05:47:40.301Z,86.50
2023-01-09T05:48:40.268Z,86.60
2023-01-09T05:49:40.339Z,87.94
2023-01-09T05:50:40.244Z,86.60
2023-01-09T05:51:40.243Z,85.68
2023-01-09T05:52:40.273Z,85.47
2023-01-09T05:53:40.202Z,85.98
2023-01-09T05:54:40.227Z,84.75
2023-01-09T05:55:40.183Z,85.92
2023-01-09T05:56:40.212Z,85.20
2023-01-09T05:57:40.189Z,85.51
2023-01-09T05:58:40.189Z,86.43
2023-01-09T05:59:40.140Z,85.82
2023-01-09T06:00:40.146Z,85.10
2023-01-09T06:01:40.151Z,86.06
2023-01-09T06:02:40.255Z,85.55
2023-01-09T06:03:40.129Z,87.51
2023-01-09T06:04:40.121Z,88.59
2023-01-09T06:05:40.075Z,86.54
2023-01-09T06:06:40.081Z,88.08
2023-01-09T06:07:40.093Z,88.18
2023-01-09T06:08:40.086Z,88.08
2023-01-09T06:09:39.988Z,88.59
2023-01-09T06:10:40.053Z,87.77
2023-01-09T06:11:40.056Z,87.67
2023-01-09T06:12:40.040Z,88.39
2023-01-09T06:13:40.032Z,88.14
2023-01-09T06:14:40.048Z,87.22
2023-01-09T06:15:40.014Z,86.08
2023-01-09T06:16:39.983Z,85.98
2023-01-09T06:17:39.959Z,85.36
2023-01-09T06:18:39.997Z,86.43
2023-01-09T06:19:39.960Z,86.29
2023-01-09T06:20:39.982Z,85.82
2023-01-09T06:21:39.917Z,88.76
2023-01-09T06:22:39.923Z,87.52
2023-01-09T06:23:39.965Z,87.73
2023-01-09T06:24:39.903Z,87.32
2023-01-09T06:25:39.901Z,85.92
2023-01-09T06:26:39.909Z,88.59
2023-01-09T06:27:39.868Z,87.57
2023-01-09T06:28:39.892Z,86.74
2023-01-09T06:29:39.843Z,86.43
2023-01-09T06:30:39.848Z,85.82
2023-01-09T06:31:39.823Z,87.67
2023-01-09T06:32:39.810Z,87.32
2023-01-09T06:33:39.837Z,86.02
2023-01-09T06:34:39.867Z,86.60
2023-01-09T06:35:39.785Z,86.80
2023-01-09T06:36:39.772Z,87.01
2023-01-09T06:37:39.798Z,85.26
2023-01-09T06:38:39.788Z,86.80
2023-01-09T06:39:39.713Z,87.22
2023-01-09T06:40:39.739Z,85.47
2023-01-09T06:41:39.721Z,86.50
2023-01-09T06:42:39.740Z,85.10
2023-01-09T06:43:39.750Z,85.41
2023-01-09T06:44:39.645Z,87.12
2023-01-09T06:45:39.697Z,87.63
2023-01-09T06:46:39.684Z,86.29
2023-01-09T06:47:39.668Z,85.78
2023-01-09T06:48:40.045Z,84.85
2023-01-09T06:49:39.675Z,84.64
2023-01-09T06:50:39.702Z,87.12
2023-01-09T06:51:39.629Z,86.08
2023-01-09T06:52:39.577Z,86.19
2023-01-09T06:53:39.603Z,85.68
2023-01-09T06:54:39.540Z,84.44
2023-01-09T06:55:39.535Z,85.47
2023-01-09T06:56:39.542Z,85.26
2023-01-09T06:57:39.566Z,85.06
2023-01-09T06:58:39.591Z,86.60
2023-01-09T06:59:39.538Z,84.64
2023-01-09T07:00:39.578Z,84.44
2023-01-09T07:01:39.599Z,84.64
2023-01-09T07:02:39.576Z,86.70
2023-01-09T07:03:39.459Z,84.34
2023-01-09T07:04:39.494Z,84.03
2023-01-09T07:05:39.465Z,84.34
2023-01-09T07:06:39.425Z,84.48
2023-01-09T07:07:39.415Z,84.89
2023-01-09T07:08:39.429Z,85.41
2023-01-09T07:09:39.405Z,85.41
2023-01-09T07:10:39.388Z,84.17
2023-01-09T07:11:39.409Z,85.30
2023-01-09T07:12:39.387Z,85.61
2023-01-09T07:13:39.357Z,86.13
2023-01-09T07:14:39.387Z,85.30
2023-01-09T07:15:39.377Z,86.74
2023-01-09T07:16:39.334Z,85.71
2023-01-09T07:17:39.353Z,86.33
2023-01-09T07:18:39.504Z,87.67
2023-01-09T07:19:39.325Z,85.82
2023-01-09T07:20:39.303Z,87.63
2023-01-09T07:21:39.275Z,85.57
2023-01-09T07:22:39.341Z,87.01
2023-01-09T07:23:39.334Z,86.08
2023-01-09T07:24:39.250Z,86.50
2023-01-09T07:25:39.257Z,85.06
2023-01-09T07:26:39.250Z,85.06
2023-01-09T07:27:39.217Z,85.47
2023-01-09T07:28:39.200Z,84.85
2023-01-09T07:29:39.183Z,84.75
2023-01-09T07:30:39.202Z,87.05
2023-01-09T07:31:39.199Z,87.15
2023-01-09T07:32:39.173Z,85.47
2023-01-09T07:33:39.211Z,85.16
2023-01-09T07:34:39.157Z,86.33
2023-01-09T07:35:39.166Z,87.46
2023-01-09T07:36:39.132Z,87.46
2023-01-09T07:37:39.140Z,86.54
2023-01-09T07:38:39.106Z,87.63
2023-01-09T07:39:39.101Z,86.91
2023-01-09T07:40:39.117Z,86.60
2023-01-09T07:41:39.083Z,87.42
2023-01-09T07:42:39.118Z,87.42
2023-01-09T07:43:39.050Z,87.94
2023-01-09T07:44:39.158Z,89.44
2023-01-09T07:45:39.067Z,85.94
2023-01-09T07:46:39.101Z,86.77
2023-01-09T07:47:39.069Z,87.69
2023-01-09T07:48:39.024Z,88.51
2023-01-09T07:49:39.075Z,87.79
2023-01-09T07:50:39.054Z,89.40
2023-01-09T07:51:39.064Z,89.09
2023-01-09T07:52:45.030Z,88.57
2023-01-09T07:53:38.983Z,87.85
2023-01-09T07:54:39.195Z,87.13
2023-01-09T07:55:39.040Z,85.70
2023-01-09T07:56:39.189Z,86.32
2023-01-09T07:57:38.967Z,86.21
2023-01-09T07:58:39.622Z,85.60
2023-01-09T07:59:40.188Z,86.62
2023-01-09T08:00:38.910Z,86.72
2023-01-09T08:01:38.952Z,87.90
2023-01-09T08:02:38.995Z,89.70
2023-01-09T08:03:38.946Z,86.32
2023-01-09T08:04:38.888Z,86.97
2023-01-09T08:05:39.510Z,87.18
2023-01-09T08:06:39.563Z,86.97
2023-01-09T08:07:38.921Z,87.59
2023-01-09T08:08:38.830Z,88.62
2023-01-09T08:09:39.553Z,87.79
2023-01-09T08:10:38.797Z,86.35
2023-01-09T08:11:38.779Z,86.91
2023-01-09T08:12:38.805Z,89.07
2023-01-09T08:13:38.752Z,88.35
2023-01-09T08:14:38.733Z,89.28
2023-01-09T08:15:38.819Z,88.45
2023-01-09T08:16:38.755Z,87.73
2023-01-09T08:17:38.711Z,88.35
2023-01-09T08:18:38.693Z,89.44
2023-01-09T08:19:38.694Z,88.10
2023-01-09T08:20:38.683Z,87.07
2023-01-09T08:21:39.011Z,86.56
2023-01-09T08:22:41.596Z,87.12
2023-01-09T08:23:38.723Z,88.62
2023-01-09T08:24:38.705Z,90.47
2023-01-09T08:25:38.712Z,89.64
2023-01-09T08:26:38.701Z,88.20
2023-01-09T08:27:39.606Z,87.07
2023-01-09T08:28:38.609Z,86.25
2023-01-09T08:29:38.766Z,86.56
2023-01-09T08:30:38.579Z,85.94
2023-01-09T08:31:38.740Z,87.28
2023-01-09T08:32:38.726Z,87.59
2023-01-09T08:33:40.466Z,86.56
2023-01-09T08:34:38.560Z,87.07
2023-01-09T08:35:38.522Z,87.18
2023-01-09T08:36:38.518Z,87.38
2023-01-09T08:37:38.547Z,88.06
2023-01-09T08:38:38.519Z,86.62
2023-01-09T08:39:38.530Z,86.42
2023-01-09T08:40:38.506Z,86.93
2023-01-09T08:41:38.511Z,86.62
2023-01-09T08:42:38.463Z,86.52
2023-01-09T08:43:38.562Z,86.17
2023-01-09T08:44:38.563Z,85.35
2023-01-09T08:45:38.479Z,85.35
2023-01-09T08:46:38.626Z,85.86
2023-01-09T08:47:38.573Z,84.88
2023-01-09T08:48:38.378Z,85.39
2023-01-09T08:49:38.390Z,85.90
2023-01-09T08:50:38.380Z,86.00
2023-01-09T08:51:38.347Z,86.21
2023-01-09T08:52:38.331Z,86.32
2023-01-09T08:53:38.358Z,86.32
2023-01-09T08:54:38.453Z,87.45
2023-01-09T08:55:38.321Z,87.34
2023-01-09T08:56:38.320Z,88.02
2023-01-09T08:57:38.283Z,88.12
2023-01-09T08:58:38.280Z,86.68
2023-01-09T08:59:38.267Z,85.97
2023-01-09T09:00:38.263Z,86.17
2023-01-09T09:01:38.275Z,85.14
2023-01-09T09:02:38.308Z,86.68
2023-01-09T09:03:38.225Z,86.89
2023-01-09T09:04:38.219Z,85.97
2023-01-09T09:05:38.227Z,84.94
2023-01-09T09:06:38.192Z,84.12
2023-01-09T09:07:38.263Z,84.63
2023-01-09T09:08:38.173Z,86.48
2023-01-09T09:09:38.174Z,84.22
2023-01-09T09:10:38.148Z,84.90
2023-01-09T09:11:38.156Z,85.72
2023-01-09T09:12:38.173Z,84.49
2023-01-09T09:13:38.154Z,83.77
2023-01-09T09:14:38.143Z,83.26
2023-01-09T09:15:38.305Z,83.67
2023-01-09T09:16:38.110Z,84.90
2023-01-09T09:17:38.116Z,84.08
2023-01-09T09:18:38.354Z,85.52
2023-01-09T09:19:38.126Z,86.13
2023-01-09T09:20:38.081Z,84.18
2023-01-09T09:21:38.072Z,85.52
2023-01-09T09:22:38.031Z,85.38
2023-01-09T09:23:38.016Z,85.58
2023-01-09T09:24:38.286Z,83.56
2023-01-09T09:25:38.096Z,83.77
2023-01-09T09:26:38.027Z,83.98
2023-01-09T09:27:38.015Z,84.14
2023-01-09T09:28:37.978Z,84.55
2023-01-09T09:29:37.981Z,83.87
2023-01-09T09:30:37.983Z,83.87
2023-01-09T09:31:38.085Z,83.77
2023-01-09T09:32:38.014Z,84.49
2023-01-09T09:33:37.992Z,85.31
2023-01-09T09:34:37.925Z,86.03
2023-01-09T09:35:37.915Z,85.93
2023-01-09T09:36:37.951Z,86.44
2023-01-09T09:37:37.884Z,86.03
2023-01-09T09:38:37.868Z,85.00
2023-01-09T09:39:37.854Z,84.28
2023-01-09T09:40:37.843Z,86.38
2023-01-09T09:41:37.826Z,86.89
2023-01-09T09:42:37.834Z,86.48
2023-01-09T09:43:37.824Z,85.66
2023-01-09T09:44:37.920Z,85.93
2023-01-09T09:45:37.793Z,85.00
2023-01-09T09:46:37.789Z,84.69
2023-01-09T09:47:37.766Z,86.24
2023-01-09T09:48:37.781Z,85.72
2023-01-09T09:49:37.775Z,84.69
2023-01-09T09:50:37.769Z,84.18
2023-01-09T09:51:37.729Z,84.49
2023-01-09T09:52:37.725Z,84.59
2023-01-09T09:53:37.708Z,83.56
2023-01-09T09:54:37.725Z,83.98
2023-01-09T09:55:37.697Z,85.31
2023-01-09T09:56:37.724Z,86.24
2023-01-09T09:57:37.660Z,85.17
2023-01-09T09:58:37.646Z,83.98
2023-01-09T09:59:37.654Z,84.08
2023-01-09T10:00:37.639Z,84.25
2023-01-09T10:01:37.667Z,83.53
2023-01-09T10:02:37.677Z,83.26
2023-01-09T10:03:37.661Z,83.73
2023-01-09T10:04:37.655Z,85.00
2023-01-09T10:05:37.599Z,84.66
2023-01-09T10:06:37.599Z,84.04
2023-01-09T10:07:39.869Z,82.40
2023-01-09T10:08:37.569Z,82.60
2023-01-09T10:09:37.545Z,82.50
2023-01-09T10:10:37.528Z,82.29
2023-01-09T10:11:37.548Z,82.03
2023-01-09T10:12:37.508Z,83.05
2023-01-09T10:13:37.522Z,83.26
2023-01-09T10:14:37.507Z,83.05
2023-01-09T10:15:38.556Z,82.40
2023-01-09T10:16:37.491Z,83.12
2023-01-09T10:17:37.540Z,83.36
2023-01-09T10:18:37.631Z,82.33
2023-01-09T10:19:37.618Z,82.33
2023-01-09T10:20:37.515Z,83.36
2023-01-09T10:21:37.507Z,83.46
2023-01-09T10:22:37.499Z,82.84
2023-01-09T10:23:37.440Z,84.08
2023-01-09T10:24:37.401Z,84.34
2023-01-09T10:25:37.396Z,83.73
2023-01-09T10:26:37.357Z,83.12
2023-01-09T10:27:37.354Z,84.04
2023-01-09T10:28:37.328Z,83.53
2023-01-09T10:29:37.330Z,83.22
2023-01-09T10:30:37.335Z,82.91
2023-01-09T10:31:37.375Z,83.01
2023-01-09T10:32:37.408Z,83.22
2023-01-09T10:33:37.295Z,82.70
2023-01-09T10:34:37.269Z,83.53
2023-01-09T10:35:47.362Z,83.83
2023-01-09T10:36:37.298Z,83.53
2023-01-09T10:37:37.253Z,84.04
2023-01-09T10:38:37.235Z,82.70
2023-01-09T10:39:37.258Z,82.70
2023-01-09T10:40:37.220Z,82.50
2023-01-09T10:41:37.198Z,81.78
2023-01-09T10:42:37.198Z,81.68
2023-01-09T10:43:37.178Z,82.09
2023-01-09T10:44:37.198Z,81.88
2023-01-09T10:45:37.181Z,80.55
2023-01-09T10:46:37.596Z,79.83
2023-01-09T10:47:37.166Z,80.65
2023-01-09T10:48:37.129Z,80.72
2023-01-09T10:49:37.135Z,80.21
2023-01-09T10:50:37.134Z,80.10
2023-01-09T10:51:37.151Z,80.62
2023-01-09T10:52:37.390Z,80.10
2023-01-09T10:53:37.128Z,79.80
2023-01-09T10:54:37.111Z,79.38
2023-01-09T10:55:37.154Z,78.77
2023-01-09T10:56:37.083Z,79.08
2023-01-09T10:57:37.581Z,79.90
2023-01-09T10:58:37.135Z,79.18
2023-01-09T10:59:37.024Z,78.77
2023-01-09T11:00:37.018Z,79.28
2023-01-09T11:01:37.060Z,78.77
2023-01-09T11:02:37.443Z,78.77
2023-01-09T11:03:37.058Z,78.77
2023-01-09T11:04:36.995Z,78.97
2023-01-09T11:05:37.020Z,78.36
2023-01-09T11:06:36.978Z,78.32
2023-01-09T11:07:36.954Z,77.91
2023-01-09T11:08:37.106Z,77.50
2023-01-09T11:09:36.980Z,77.61
2023-01-09T11:10:36.942Z,77.40
2023-01-09T11:11:36.910Z,76.89
2023-01-09T11:12:36.940Z,76.68
2023-01-09T11:13:36.957Z,76.78
2023-01-09T11:14:36.881Z,76.99
2023-01-09T11:15:37.060Z,77.26
2023-01-09T11:16:37.128Z,76.95
2023-01-09T11:17:36.842Z,77.20
2023-01-09T11:18:36.859Z,77.40
2023-01-09T11:19:36.892Z,77.20
2023-01-09T11:20:36.856Z,76.89
2023-01-09T11:21:36.780Z,77.09
2023-01-09T11:22:36.776Z,76.99
2023-01-09T11:23:36.889Z,77.61
2023-01-09T11:24:36.820Z,77.50
2023-01-09T11:25:36.885Z,76.27
2023-01-09T11:26:37.646Z,77.20
2023-01-09T11:27:37.017Z,76.27
2023-01-09T11:28:36.718Z,76.14
2023-01-09T11:29:36.709Z,76.75
2023-01-09T11:30:39.794Z,77.87
2023-01-09T11:31:36.786Z,77.67
2023-01-09T11:32:36.744Z,77.98
2023-01-09T11:33:36.687Z,77.47
2023-01-09T11:34:36.661Z,77.57
2023-01-09T11:35:36.632Z,78.28
2023-01-09T11:36:36.680Z,77.87
2023-01-09T11:37:36.667Z,77.98
2023-01-09T11:38:36.613Z,78.49
2023-01-09T11:39:36.600Z,78.28
2023-01-09T11:40:36.913Z,78.08
2023-01-09T11:41:36.597Z,77.87
2023-01-09T11:42:36.607Z,77.16
2023-01-09T11:43:36.580Z,77.16
2023-01-09T11:44:36.751Z,77.36
2023-01-09T11:45:37.818Z,78.19
2023-01-09T11:46:36.639Z,77.57
2023-01-09T11:47:36.553Z,76.95
2023-01-09T11:48:36.552Z,76.65
2023-01-09T11:49:36.482Z,77.26
2023-01-09T11:50:36.513Z,77.26
2023-01-09T11:51:36.484Z,76.95
2023-01-09T11:52:36.459Z,77.98
2023-01-09T11:53:36.472Z,78.39
2023-01-09T11:54:36.446Z,77.87
2023-01-09T11:55:42.456Z,78.28
2023-01-09T11:56:36.427Z,79.04
2023-01-09T11:57:36.436Z,78.42
2023-01-09T11:58:36.421Z,79.35
2023-01-09T11:59:36.377Z,78.67
2023-01-09T12:00:36.508Z,79.93
2023-01-09T12:01:36.418Z,80.76
2023-01-09T12:02:36.418Z,82.19
2023-01-09T12:03:36.349Z,81.37
2023-01-09T12:04:36.397Z,81.99
2023-01-09T12:05:36.350Z,82.50
2023-01-09T12:06:36.404Z,83.53
2023-01-09T12:07:36.295Z,82.81
2023-01-09T12:08:36.339Z,83.22
2023-01-09T12:09:36.286Z,82.81
2023-01-09T12:10:36.302Z,83.32
2023-01-09T12:11:36.260Z,83.83
2023-01-09T12:12:36.282Z,83.83
2023-01-09T12:13:36.235Z,84.14
2023-01-09T12:14:36.238Z,82.70
2023-01-09T12:15:36.240Z,83.94
2023-01-09T12:16:36.286Z,84.45
2023-01-09T12:17:36.194Z,85.27
2023-01-09T12:18:36.203Z,84.34
2023-01-09T12:19:36.189Z,83.94
2023-01-09T12:20:36.204Z,85.06
2023-01-09T12:21:36.164Z,85.27
2023-01-09T12:22:36.173Z,85.38
2023-01-09T12:23:36.190Z,85.27
2023-01-09T12:24:36.149Z,85.17
2023-01-09T12:25:36.160Z,85.27
2023-01-09T12:26:36.426Z,85.58
2023-01-09T12:27:36.108Z,84.34
2023-01-09T12:28:36.097Z,83.59
2023-01-09T12:29:36.096Z,83.59
2023-01-09T12:30:36.203Z,83.07
2023-01-09T12:31:37.014Z,82.97
2023-01-09T12:32:36.391Z,83.59
2023-01-09T12:33:36.028Z,82.97
2023-01-09T12:34:36.028Z,83.42
2023-01-09T12:35:36.061Z,83.07
2023-01-09T12:36:36.048Z,83.07
2023-01-09T12:37:36.001Z,82.26
2023-01-09T12:38:35.985Z,81.54
2023-01-09T12:39:35.984Z,81.57
2023-01-09T12:40:36.009Z,82.77
2023-01-09T12:41:36.250Z,83.28
2023-01-09T12:42:35.968Z,83.07
2023-01-09T12:43:35.974Z,82.46
2023-01-09T12:44:36.552Z,82.46
2023-01-09T12:45:35.980Z,82.36
2023-01-09T12:46:35.931Z,81.81
2023-01-09T12:47:35.901Z,81.54
2023-01-09T12:48:35.938Z,80.99
2023-01-09T12:49:35.879Z,80.62
2023-01-09T12:50:35.844Z,80.92
2023-01-09T12:51:36.234Z,80.72
2023-01-09T12:52:35.853Z,80.96
2023-01-09T12:53:35.835Z,80.04